Time;durP1;ratioP1;P1;durP2;ratioP2;P2;SDS_P1;SDS_P2;PMS_P1;PMS_P2;Temp;Humidity;BMP_temperature;BMP_pressure;BME280_temperature;BME280_humidity;BME280_pressure;Samples;Min_cycle;Max_cycle;Signal;HPM_P1;HPM_P2
2021/08/06 00:01:20;;;;;;;3.38;1.40;;;;;;;;;;4922215;29;20078;-72
2021/08/06 00:03:46;;;;;;;2.65;1.15;;;;;;;;;;4922803;29;20495;-73
2021/08/06 00:06:13;;;;;;;1.85;1.10;;;;;;;;;;4908022;29;20035;-72
2021/08/06 00:08:39;;;;;;;2.50;1.30;;;;;;;;;;4923617;29;20153;-73
2021/08/06 00:11:05;;;;;;;1.85;1.27;;;;;;;;;;4905925;29;20186;-72
2021/08/06 00:13:32;;;;;;;2.58;1.42;;;;;;;;;;4903837;29;20056;-73
2021/08/06 00:15:58;;;;;;;2.03;1.38;;;;;;;;;;4920523;29;20067;-73
2021/08/06 00:18:25;;;;;;;2.50;1.40;;;;;;;;;;4905949;29;20123;-73
2021/08/06 00:20:52;;;;;;;3.58;1.58;;;;;;;;;;4906162;29;20126;-73
2021/08/06 00:23:19;;;;;;;2.75;1.45;;;;;;;;;;4924001;29;20048;-73
2021/08/06 00:25:46;;;;;;;2.78;1.58;;;;;;;;;;4924640;29;20122;-72
2021/08/06 00:28:12;;;;;;;2.05;1.30;;;;;;;;;;4928945;29;20055;-72
2021/08/06 00:30:38;;;;;;;3.65;1.77;;;;;;;;;;4926799;29;20055;-73
2021/08/06 00:33:05;;;;;;;2.70;1.42;;;;;;;;;;4925951;29;20585;-73
2021/08/06 00:35:31;;;;;;;2.78;1.58;;;;;;;;;;4925245;29;20074;-73
2021/08/06 00:37:58;;;;;;;1.80;1.30;;;;;;;;;;4928166;29;20460;-72
2021/08/06 00:40:24;;;;;;;2.42;1.30;;;;;;;;;;4924374;29;20063;-73
2021/08/06 00:42:52;;;;;;;2.80;1.50;;;;;;;;;;4925313;29;20114;-73
2021/08/06 00:45:18;;;;;;;2.45;1.30;;;;;;;;;;4925705;29;20140;-72
2021/08/06 00:47:45;;;;;;;2.45;1.30;;;;;;;;;;4926159;29;20509;-72
2021/08/06 00:50:12;;;;;;;1.85;1.30;;;;;;;;;;4926606;29;20063;-72
2021/08/06 00:52:42;;;;;;;2.50;1.58;;;;;;;;;;4909022;29;20063;-73
2021/08/06 00:55:09;;;;;;;2.70;1.60;;;;;;;;;;4927511;29;20059;-73
2021/08/06 00:57:35;;;;;;;3.40;1.60;;;;;;;;;;4924824;29;20142;-74
2021/08/06 01:00:02;;;;;;;2.15;1.40;;;;;;;;;;4925640;29;20558;-72
2021/08/06 01:02:51;;;;;;;1.92;1.27;;;;;;;;;;4927004;29;20081;-73
2021/08/06 01:05:19;;;;;;;2.63;1.40;;;;;;;;;;4924303;29;20059;-73
2021/08/06 01:08:04;;;;;;;2.88;1.50;;;;;;;;;;4907759;29;20122;-72
2021/08/06 01:10:46;;;;;;;2.35;1.60;;;;;;;;;;4925817;29;20476;-72
2021/08/06 01:13:14;;;;;;;2.72;1.40;;;;;;;;;;4926882;29;20055;-71
2021/08/06 01:15:41;;;;;;;2.20;1.40;;;;;;;;;;4924482;29;20070;-71
2021/08/06 01:18:09;;;;;;;2.60;1.40;;;;;;;;;;4926344;29;20048;-71
2021/08/06 01:20:37;;;;;;;3.47;1.52;;;;;;;;;;4925633;29;20068;-72
2021/08/06 01:23:06;;;;;;;3.33;1.60;;;;;;;;;;4925566;29;20579;-72
2021/08/06 01:25:51;;;;;;;2.10;1.30;;;;;;;;;;4924800;29;20060;-71
2021/08/06 01:28:19;;;;;;;2.63;1.50;;;;;;;;;;4925384;29;20067;-71
2021/08/06 01:30:46;;;;;;;4.05;1.30;;;;;;;;;;4924120;29;20633;-72
2021/08/06 01:33:13;;;;;;;2.88;1.60;;;;;;;;;;4920202;29;20142;-72
2021/08/06 01:35:40;;;;;;;3.05;1.63;;;;;;;;;;4924216;29;20123;-72
2021/08/06 01:38:06;;;;;;;2.58;1.55;;;;;;;;;;4924284;29;20056;-72
2021/08/06 01:40:41;;;;;;;2.88;1.60;;;;;;;;;;4907942;29;20488;-71
2021/08/06 01:43:14;;;;;;;2.83;1.50;;;;;;;;;;4925309;29;20091;-72
2021/08/06 01:45:43;;;;;;;2.55;1.67;;;;;;;;;;4921416;29;20062;-71
2021/08/06 01:48:11;;;;;;;3.58;1.65;;;;;;;;;;4924531;29;20102;-72
2021/08/06 01:50:40;;;;;;;2.80;1.40;;;;;;;;;;4923987;29;20118;-72
2021/08/06 01:53:12;;;;;;;2.92;1.40;;;;;;;;;;4907728;29;20127;-71
2021/08/06 01:55:43;;;;;;;2.60;1.42;;;;;;;;;;4921730;29;20075;-72
2021/08/06 01:58:11;;;;;;;2.28;1.40;;;;;;;;;;4922431;29;20124;-72
2021/08/06 02:00:38;;;;;;;2.88;1.55;;;;;;;;;;4923375;29;20118;-72
2021/08/06 02:03:05;;;;;;;3.13;1.58;;;;;;;;;;4924727;29;20059;-71
2021/08/06 02:05:31;;;;;;;2.72;1.48;;;;;;;;;;4903100;29;20385;-72
2021/08/06 02:07:58;;;;;;;2.47;1.50;;;;;;;;;;4924499;29;20063;-72
2021/08/06 02:10:24;;;;;;;3.67;1.50;;;;;;;;;;4907815;29;20836;-71
2021/08/06 02:12:51;;;;;;;2.95;1.60;;;;;;;;;;4921963;29;20107;-72
2021/08/06 02:15:17;;;;;;;2.65;1.50;;;;;;;;;;4923231;29;20071;-71
2021/08/06 02:17:45;;;;;;;2.90;1.55;;;;;;;;;;4921000;29;20508;-71
2021/08/06 02:20:13;;;;;;;3.35;1.70;;;;;;;;;;4885116;29;1171455;-72
2021/08/06 02:22:41;;;;;;;1.95;1.27;;;;;;;;;;4923998;29;20491;-72
2021/08/06 02:25:10;;;;;;;2.40;1.52;;;;;;;;;;4925756;29;20063;-72
2021/08/06 02:27:37;;;;;;;3.13;1.30;;;;;;;;;;4923255;29;20055;-73
2021/08/06 02:30:05;;;;;;;3.55;1.80;;;;;;;;;;4924747;29;21360;-73
2021/08/06 02:32:32;;;;;;;2.05;1.42;;;;;;;;;;4923893;29;20070;-73
2021/08/06 02:34:59;;;;;;;1.90;1.30;;;;;;;;;;4926165;29;20063;-72
2021/08/06 02:37:25;;;;;;;3.92;1.60;;;;;;;;;;4922025;29;20055;-72
2021/08/06 02:39:52;;;;;;;4.78;1.70;;;;;;;;;;4922653;29;20090;-72
2021/08/06 02:42:18;;;;;;;2.92;1.50;;;;;;;;;;4919437;29;20069;-72
2021/08/06 02:44:45;;;;;;;1.90;1.48;;;;;;;;;;4924480;29;20071;-72
2021/08/06 02:47:11;;;;;;;2.10;1.40;;;;;;;;;;4908093;29;20071;-72
2021/08/06 02:49:38;;;;;;;2.85;1.60;;;;;;;;;;4922589;29;20063;-72
2021/08/06 02:52:06;;;;;;;2.63;1.58;;;;;;;;;;4924669;29;20055;-72
2021/08/06 02:54:33;;;;;;;2.40;1.70;;;;;;;;;;4919420;29;20076;-73
2021/08/06 02:57:00;;;;;;;3.92;1.73;;;;;;;;;;4922823;29;20075;-72
2021/08/06 02:59:26;;;;;;;2.60;1.50;;;;;;;;;;4925097;29;20075;-73
2021/08/06 03:01:53;;;;;;;2.20;1.50;;;;;;;;;;4921027;29;20071;-72
2021/08/06 03:04:19;;;;;;;2.53;1.60;;;;;;;;;;4922451;29;20928;-72
2021/08/06 03:06:45;;;;;;;2.47;1.50;;;;;;;;;;4923563;29;20114;-72
2021/08/06 03:09:12;;;;;;;3.60;1.63;;;;;;;;;;4923326;29;20068;-73
2021/08/06 03:11:38;;;;;;;2.95;1.55;;;;;;;;;;4923468;29;20539;-74
2021/08/06 03:14:04;;;;;;;2.35;1.33;;;;;;;;;;4921816;29;20076;-72
2021/08/06 03:16:32;;;;;;;3.15;1.42;;;;;;;;;;4922478;29;20060;-74
2021/08/06 03:18:58;;;;;;;2.35;1.45;;;;;;;;;;4905865;29;20063;-72
2021/08/06 03:21:25;;;;;;;2.10;1.50;;;;;;;;;;4923051;29;20075;-72
2021/08/06 03:23:51;;;;;;;2.40;1.40;;;;;;;;;;4905863;29;20091;-72
2021/08/06 03:26:17;;;;;;;1.90;1.30;;;;;;;;;;4925109;29;20059;-72
2021/08/06 03:28:44;;;;;;;2.38;1.60;;;;;;;;;;4921404;29;20062;-73
2021/08/06 03:31:10;;;;;;;2.20;1.30;;;;;;;;;;4925255;29;20040;-72
2021/08/06 03:33:37;;;;;;;2.28;1.52;;;;;;;;;;4906544;29;20444;-73
2021/08/06 03:36:03;;;;;;;1.85;1.30;;;;;;;;;;4924677;29;20063;-73
2021/08/06 03:38:30;;;;;;;2.40;1.45;;;;;;;;;;4923182;29;20071;-72
2021/08/06 03:40:56;;;;;;;2.63;1.30;;;;;;;;;;4918899;29;20881;-72
2021/08/06 03:43:23;;;;;;;3.00;1.60;;;;;;;;;;4920744;29;20070;-72
2021/08/06 03:45:49;;;;;;;1.73;1.20;;;;;;;;;;4907208;29;20082;-73
2021/08/06 03:48:15;;;;;;;3.13;1.60;;;;;;;;;;4907258;29;20070;-73
2021/08/06 03:50:42;;;;;;;2.13;1.40;;;;;;;;;;4922081;29;20082;-73
2021/08/06 03:53:09;;;;;;;2.40;1.50;;;;;;;;;;4924242;29;20724;-72
2021/08/06 03:55:35;;;;;;;2.08;1.40;;;;;;;;;;4906933;29;20086;-73
2021/08/06 03:58:03;;;;;;;3.03;1.40;;;;;;;;;;4922312;29;20558;-72
2021/08/06 04:00:33;;;;;;;2.22;1.45;;;;;;;;;;4922267;29;20056;-72
2021/08/06 04:02:59;;;;;;;2.50;1.10;;;;;;;;;;4921337;29;20532;-72
2021/08/06 04:05:25;;;;;;;2.50;1.38;;;;;;;;;;4921850;29;20070;-72
2021/08/06 04:07:52;;;;;;;1.80;1.30;;;;;;;;;;4922446;29;20048;-72
2021/08/06 04:10:19;;;;;;;3.38;1.33;;;;;;;;;;4923854;29;20071;-72
2021/08/06 04:12:46;;;;;;;2.45;1.40;;;;;;;;;;4921923;29;20056;-72
2021/08/06 04:15:13;;;;;;;2.08;1.27;;;;;;;;;;4891843;29;20495;-72
2021/08/06 04:17:40;;;;;;;2.42;1.42;;;;;;;;;;4921625;29;20082;-72
2021/08/06 04:20:06;;;;;;;2.55;1.30;;;;;;;;;;4921900;29;20083;-72
2021/08/06 04:22:33;;;;;;;2.22;1.48;;;;;;;;;;4904486;29;20070;-72
2021/08/06 04:25:00;;;;;;;2.13;1.20;;;;;;;;;;4922893;29;20071;-72
2021/08/06 04:27:26;;;;;;;2.33;1.25;;;;;;;;;;4923535;29;20143;-71
2021/08/06 04:29:52;;;;;;;2.83;1.35;;;;;;;;;;4922480;29;20067;-71
2021/08/06 04:32:19;;;;;;;1.75;1.00;;;;;;;;;;4920908;29;20070;-70
2021/08/06 04:34:45;;;;;;;2.60;1.30;;;;;;;;;;4920455;29;20523;-70
2021/08/06 04:37:13;;;;;;;3.97;1.60;;;;;;;;;;4922754;29;20131;-72
2021/08/06 04:39:39;;;;;;;2.83;1.40;;;;;;;;;;4907277;29;20079;-71
2021/08/06 04:42:06;;;;;;;3.00;1.38;;;;;;;;;;4922505;29;20067;-71
2021/08/06 04:44:36;;;;;;;1.65;1.05;;;;;;;;;;4921310;29;20134;-72
2021/08/06 04:47:03;;;;;;;3.45;1.42;;;;;;;;;;4923097;29;20119;-72
2021/08/06 04:49:30;;;;;;;2.83;1.40;;;;;;;;;;4921615;29;20064;-71
2021/08/06 04:51:56;;;;;;;2.20;1.40;;;;;;;;;;4923001;29;20504;-71
2021/08/06 04:54:22;;;;;;;3.92;1.42;;;;;;;;;;4906467;29;20059;-71
2021/08/06 04:56:49;;;;;;;2.95;1.40;;;;;;;;;;4905584;29;20575;-72
2021/08/06 04:59:15;;;;;;;2.58;1.50;;;;;;;;;;4923027;29;20051;-71
2021/08/06 05:01:42;;;;;;;2.33;1.30;;;;;;;;;;4921530;29;20554;-72
2021/08/06 05:04:08;;;;;;;2.78;1.15;;;;;;;;;;4923037;29;20067;-71
2021/08/06 05:06:35;;;;;;;2.83;1.40;;;;;;;;;;4906362;29;20071;-71
2021/08/06 05:09:01;;;;;;;1.95;1.20;;;;;;;;;;4922936;29;20059;-71
2021/08/06 05:11:27;;;;;;;3.33;1.40;;;;;;;;;;4923637;29;20078;-71
2021/08/06 05:13:54;;;;;;;1.70;1.10;;;;;;;;;;4924527;29;20118;-71
2021/08/06 05:16:20;;;;;;;2.20;1.40;;;;;;;;;;4926358;29;20063;-71
2021/08/06 05:18:47;;;;;;;2.58;1.20;;;;;;;;;;4924706;29;20094;-71
2021/08/06 05:21:13;;;;;;;3.03;1.40;;;;;;;;;;4923582;29;20178;-72
2021/08/06 05:23:40;;;;;;;2.22;1.30;;;;;;;;;;4921437;29;20389;-72
2021/08/06 05:26:06;;;;;;;1.60;1.10;;;;;;;;;;4921986;29;20067;-72
2021/08/06 05:28:32;;;;;;;2.03;1.27;;;;;;;;;;4925616;29;20197;-72
2021/08/06 05:30:59;;;;;;;2.30;1.38;;;;;;;;;;4925253;29;20838;-72
2021/08/06 05:33:25;;;;;;;2.47;1.38;;;;;;;;;;4923243;29;20071;-71
2021/08/06 05:35:52;;;;;;;2.47;1.20;;;;;;;;;;4907879;29;20071;-71
2021/08/06 05:38:18;;;;;;;2.33;1.13;;;;;;;;;;4905209;29;20119;-71
2021/08/06 05:40:44;;;;;;;2.17;1.17;;;;;;;;;;4924531;29;20152;-72
2021/08/06 05:43:11;;;;;;;3.85;1.20;;;;;;;;;;4925854;29;20055;-72
2021/08/06 05:45:37;;;;;;;3.47;1.35;;;;;;;;;;4924706;29;20063;-72
2021/08/06 05:48:04;;;;;;;7.38;1.17;;;;;;;;;;4924747;29;20078;-72
2021/08/06 05:50:37;;;;;;;2.42;1.00;;;;;;;;;;4927790;29;20127;-72
2021/08/06 05:53:03;;;;;;;1.50;0.88;;;;;;;;;;4924318;29;20060;-72
2021/08/06 05:55:29;;;;;;;1.70;0.90;;;;;;;;;;4920903;29;20063;-72
2021/08/06 05:57:56;;;;;;;2.75;0.90;;;;;;;;;;4919678;29;21788;-71
2021/08/06 06:00:22;;;;;;;2.63;1.00;;;;;;;;;;4919404;29;20060;-72
2021/08/06 06:02:49;;;;;;;2.38;1.20;;;;;;;;;;4916937;29;20064;-72
2021/08/06 06:05:15;;;;;;;2.50;1.55;;;;;;;;;;4922599;29;20066;-72
2021/08/06 06:07:43;;;;;;;2.75;1.40;;;;;;;;;;4921938;29;20066;-72
2021/08/06 06:10:09;;;;;;;2.58;1.55;;;;;;;;;;4922289;29;20055;-72
2021/08/06 06:12:36;;;;;;;2.83;1.77;;;;;;;;;;4919833;29;20067;-72
2021/08/06 06:15:02;;;;;;;2.83;1.60;;;;;;;;;;4923194;29;20461;-72
2021/08/06 06:17:29;;;;;;;2.08;1.30;;;;;;;;;;4922051;29;20107;-71
2021/08/06 06:19:55;;;;;;;6.68;1.48;;;;;;;;;;4923851;29;20075;-72
2021/08/06 06:22:21;;;;;;;2.08;1.33;;;;;;;;;;4908315;29;20047;-72
2021/08/06 06:24:48;;;;;;;2.88;1.38;;;;;;;;;;4919907;29;20114;-72
2021/08/06 06:27:14;;;;;;;2.28;1.27;;;;;;;;;;4922920;29;20527;-72
2021/08/06 06:29:40;;;;;;;3.97;1.23;;;;;;;;;;4920979;29;20063;-72
2021/08/06 06:32:08;;;;;;;4.57;1.33;;;;;;;;;;4920821;29;20072;-71
2021/08/06 06:34:34;;;;;;;1.75;1.02;;;;;;;;;;4920073;29;20074;-74
2021/08/06 06:37:01;;;;;;;2.17;1.10;;;;;;;;;;4921144;29;20067;-71
2021/08/06 06:39:27;;;;;;;2.40;1.27;;;;;;;;;;4922678;29;20827;-73
2021/08/06 06:41:53;;;;;;;1.75;1.00;;;;;;;;;;4923074;29;20214;-72
2021/08/06 06:44:20;;;;;;;1.60;1.02;;;;;;;;;;4922852;29;20158;-73
2021/08/06 06:46:46;;;;;;;3.20;1.35;;;;;;;;;;4922445;29;20527;-73
2021/08/06 06:49:12;;;;;;;1.67;0.95;;;;;;;;;;4909195;29;20075;-72
2021/08/06 06:51:39;;;;;;;2.38;1.00;;;;;;;;;;4922423;29;20078;-73
2021/08/06 06:54:06;;;;;;;2.17;1.13;;;;;;;;;;4907941;29;20160;-72
2021/08/06 06:56:32;;;;;;;1.50;0.80;;;;;;;;;;4923973;29;20110;-73
2021/08/06 06:58:58;;;;;;;1.98;1.20;;;;;;;;;;4924095;29;20805;-72
2021/08/06 07:01:25;;;;;;;1.67;0.93;;;;;;;;;;4923575;29;20060;-72
2021/08/06 07:03:51;;;;;;;2.10;1.20;;;;;;;;;;4905878;29;20567;-71
2021/08/06 07:06:21;;;;;;;1.83;1.10;;;;;;;;;;4908913;29;20117;-71
2021/08/06 07:08:47;;;;;;;1.80;0.90;;;;;;;;;;4921362;29;20063;-71
2021/08/06 07:11:14;;;;;;;1.30;0.70;;;;;;;;;;4922691;29;20055;-71
2021/08/06 07:13:40;;;;;;;1.50;0.80;;;;;;;;;;4919433;29;20067;-71
2021/08/06 07:16:07;;;;;;;1.50;0.95;;;;;;;;;;4923633;29;20055;-71
2021/08/06 07:18:34;;;;;;;2.25;1.00;;;;;;;;;;4918616;29;20067;-72
2021/08/06 07:21:01;;;;;;;2.25;1.08;;;;;;;;;;4920968;29;20059;-71
2021/08/06 07:23:28;;;;;;;2.10;1.10;;;;;;;;;;4922795;29;20099;-71
2021/08/06 07:25:55;;;;;;;1.70;1.00;;;;;;;;;;4922401;29;20040;-72
2021/08/06 07:28:21;;;;;;;1.73;0.95;;;;;;;;;;4919724;29;20503;-71
2021/08/06 07:30:48;;;;;;;1.60;1.00;;;;;;;;;;4920994;29;20067;-71
2021/08/06 07:33:14;;;;;;;1.88;1.13;;;;;;;;;;4925010;29;20070;-71
2021/08/06 07:35:40;;;;;;;2.05;1.23;;;;;;;;;;4922264;29;20075;-70
2021/08/06 07:38:07;;;;;;;1.58;1.08;;;;;;;;;;4906320;29;20072;-70
2021/08/06 07:40:33;;;;;;;2.22;1.30;;;;;;;;;;4905827;29;20043;-71
2021/08/06 07:43:00;;;;;;;1.50;1.00;;;;;;;;;;4923481;29;20028;-71
2021/08/06 07:45:26;;;;;;;1.35;1.00;;;;;;;;;;4921245;29;20967;-71
2021/08/06 07:47:53;;;;;;;2.22;1.00;;;;;;;;;;4905737;29;20495;-71
2021/08/06 07:50:19;;;;;;;1.88;1.00;;;;;;;;;;4919989;29;20415;-71
2021/08/06 07:52:46;;;;;;;1.17;0.70;;;;;;;;;;4922727;29;20063;-75
2021/08/06 07:55:13;;;;;;;1.85;1.00;;;;;;;;;;4922708;29;20790;-74
2021/08/06 07:57:40;;;;;;;1.50;0.80;;;;;;;;;;4905260;29;20063;-73
2021/08/06 08:00:07;;;;;;;1.40;0.80;;;;;;;;;;4918995;29;20084;-74
2021/08/06 08:02:36;;;;;;;3.75;0.82;;;;;;;;;;4920082;29;20507;-74
2021/08/06 08:05:02;;;;;;;1.55;0.90;;;;;;;;;;4921032;29;20071;-74
2021/08/06 08:07:29;;;;;;;2.25;1.05;;;;;;;;;;4919183;29;20059;-74
2021/08/06 08:09:55;;;;;;;2.17;0.90;;;;;;;;;;4920177;29;20046;-74
2021/08/06 08:12:22;;;;;;;1.42;0.80;;;;;;;;;;4921530;29;20059;-73
2021/08/06 08:14:49;;;;;;;2.08;1.00;;;;;;;;;;4918551;29;20067;-74
2021/08/06 08:17:18;;;;;;;2.75;0.90;;;;;;;;;;4921042;29;20463;-74
2021/08/06 08:19:45;;;;;;;1.73;0.85;;;;;;;;;;4921429;29;20107;-74
2021/08/06 08:22:12;;;;;;;2.08;1.00;;;;;;;;;;4921104;29;21347;-74
2021/08/06 08:24:38;;;;;;;2.28;0.90;;;;;;;;;;4920237;29;20059;-74
2021/08/06 08:27:05;;;;;;;1.38;0.82;;;;;;;;;;4921400;29;20052;-72
2021/08/06 08:29:31;;;;;;;3.17;0.77;;;;;;;;;;4922528;29;20091;-77
2021/08/06 08:31:58;;;;;;;1.65;0.80;;;;;;;;;;4904322;29;21619;-74
2021/08/06 08:34:24;;;;;;;1.98;1.05;;;;;;;;;;4921612;29;20559;-74
2021/08/06 08:36:51;;;;;;;1.95;0.80;;;;;;;;;;4920746;29;20071;-73
2021/08/06 08:39:19;;;;;;;2.72;1.20;;;;;;;;;;4923308;29;20071;-73
2021/08/06 08:41:46;;;;;;;2.05;0.90;;;;;;;;;;4921281;29;20485;-73
2021/08/06 08:44:12;;;;;;;1.60;1.00;;;;;;;;;;4923946;29;20103;-74
2021/08/06 08:46:39;;;;;;;1.98;1.10;;;;;;;;;;4926060;29;20040;-74
2021/08/06 08:49:05;;;;;;;1.65;0.95;;;;;;;;;;4925878;29;20056;-74
2021/08/06 08:51:32;;;;;;;1.80;0.80;;;;;;;;;;4922996;29;20068;-75
2021/08/06 08:54:02;;;;;;;4.60;1.10;;;;;;;;;;4921791;29;20062;-74
2021/08/06 08:56:32;;;;;;;1.70;0.90;;;;;;;;;;4925770;29;20071;-73
2021/08/06 08:58:59;;;;;;;1.35;0.82;;;;;;;;;;4922954;29;20079;-74
2021/08/06 09:01:25;;;;;;;2.80;1.13;;;;;;;;;;4923010;29;20170;-73
2021/08/06 09:03:52;;;;;;;2.75;1.73;;;;;;;;;;4907290;29;20075;-72
2021/08/06 09:06:19;;;;;;;3.13;1.52;;;;;;;;;;4925167;29;20118;-71
2021/08/06 09:08:46;;;;;;;3.08;1.70;;;;;;;;;;4922867;29;20519;-73
2021/08/06 09:11:29;;;;;;;3.60;1.30;;;;;;;;;;4925054;29;20067;-72
2021/08/06 09:14:14;;;;;;;2.53;1.40;;;;;;;;;;4924027;29;20700;-72
2021/08/06 09:16:53;;;;;;;2.45;1.40;;;;;;;;;;4922307;29;20127;-73
2021/08/06 09:19:20;;;;;;;2.60;1.30;;;;;;;;;;4925017;29;20104;-72
2021/08/06 09:21:46;;;;;;;3.35;1.58;;;;;;;;;;4925357;29;20122;-72
2021/08/06 09:24:12;;;;;;;4.68;1.70;;;;;;;;;;4924902;29;20078;-71
2021/08/06 09:26:42;;;;;;;2.95;1.60;;;;;;;;;;4922719;29;20059;-73
2021/08/06 09:29:20;;;;;;;3.30;1.73;;;;;;;;;;4924181;29;20196;-72
2021/08/06 09:31:52;;;;;;;3.33;1.80;;;;;;;;;;4922099;29;20519;-72
2021/08/06 09:34:37;;;;;;;3.17;1.50;;;;;;;;;;4924396;29;20043;-72
2021/08/06 09:37:07;;;;;;;3.20;1.50;;;;;;;;;;4925284;29;20203;-72
2021/08/06 09:39:53;;;;;;;4.18;1.60;;;;;;;;;;4922664;29;20519;-72
2021/08/06 09:42:35;;;;;;;2.42;1.60;;;;;;;;;;4921787;29;20076;-73
2021/08/06 09:45:05;;;;;;;3.58;1.63;;;;;;;;;;4923034;29;20167;-73
2021/08/06 09:47:33;;;;;;;4.45;2.08;;;;;;;;;;4921027;29;20504;-72
2021/08/06 09:50:01;;;;;;;3.08;1.80;;;;;;;;;;4923608;29;20127;-72
2021/08/06 09:52:30;;;;;;;3.63;1.80;;;;;;;;;;4923463;29;20067;-73
2021/08/06 09:54:57;;;;;;;3.83;1.92;;;;;;;;;;4924434;29;20067;-72
2021/08/06 09:57:23;;;;;;;2.55;1.60;;;;;;;;;;4910061;29;20067;-72
2021/08/06 09:59:50;;;;;;;5.05;1.90;;;;;;;;;;4922334;29;20504;-72
2021/08/06 10:02:23;;;;;;;2.40;1.77;;;;;;;;;;4922439;29;20071;-73
2021/08/06 10:05:01;;;;;;;4.10;2.00;;;;;;;;;;4920405;29;20556;-73
2021/08/06 10:07:28;;;;;;;6.30;2.33;;;;;;;;;;4921204;29;20072;-74
2021/08/06 10:09:55;;;;;;;4.60;1.77;;;;;;;;;;4921837;29;20071;-73
2021/08/06 10:12:22;;;;;;;2.47;1.48;;;;;;;;;;4922621;29;20067;-73
2021/08/06 10:14:48;;;;;;;4.30;1.88;;;;;;;;;;4919406;29;20095;-73
2021/08/06 10:17:15;;;;;;;2.80;1.70;;;;;;;;;;4923081;29;20083;-73
2021/08/06 10:19:41;;;;;;;2.45;1.63;;;;;;;;;;4906577;29;20488;-73
2021/08/06 10:22:10;;;;;;;2.30;1.77;;;;;;;;;;4922039;29;20063;-73
2021/08/06 10:24:37;;;;;;;3.35;1.88;;;;;;;;;;4917066;29;20116;-73
2021/08/06 10:27:04;;;;;;;2.67;1.60;;;;;;;;;;4920579;29;20147;-73
2021/08/06 10:29:30;;;;;;;2.75;1.42;;;;;;;;;;4925599;29;20052;-73
2021/08/06 10:32:10;;;;;;;3.53;1.70;;;;;;;;;;4915925;29;20062;-72
2021/08/06 10:35:03;;;;;;;2.58;1.67;;;;;;;;;;4904084;29;20063;-72
2021/08/06 10:37:41;;;;;;;3.53;2.10;;;;;;;;;;4904455;29;20067;-72
2021/08/06 10:40:08;;;;;;;3.50;2.08;;;;;;;;;;4918282;29;20067;-73
2021/08/06 10:42:34;;;;;;;3.72;1.77;;;;;;;;;;4904693;29;20037;-73
2021/08/06 10:45:01;;;;;;;3.45;1.40;;;;;;;;;;4919592;29;20131;-73
2021/08/06 10:47:46;;;;;;;4.00;2.00;;;;;;;;;;4919017;29;20169;-73
2021/08/06 10:50:16;;;;;;;3.47;1.60;;;;;;;;;;4919238;29;20067;-72
2021/08/06 10:52:43;;;;;;;4.03;2.08;;;;;;;;;;4919209;29;20126;-72
2021/08/06 10:55:16;;;;;;;2.88;1.90;;;;;;;;;;4919306;29;20143;-73
2021/08/06 10:57:43;;;;;;;4.03;1.70;;;;;;;;;;4918380;29;20130;-72
2021/08/06 11:00:09;;;;;;;2.33;1.42;;;;;;;;;;4920506;29;20067;-73
2021/08/06 11:02:36;;;;;;;3.78;1.95;;;;;;;;;;4923639;29;20067;-73
2021/08/06 11:05:22;;;;;;;2.20;1.63;;;;;;;;;;4922721;29;20081;-73
2021/08/06 11:07:49;;;;;;;4.15;1.88;;;;;;;;;;4923459;29;20035;-73
2021/08/06 11:10:34;;;;;;;2.40;1.58;;;;;;;;;;4924879;29;20067;-73
2021/08/06 11:13:00;;;;;;;3.08;1.30;;;;;;;;;;4921869;29;21348;-73
2021/08/06 11:15:47;;;;;;;2.45;1.38;;;;;;;;;;4924878;29;20131;-74
2021/08/06 11:18:13;;;;;;;2.63;1.98;;;;;;;;;;4921811;29;20509;-73
2021/08/06 11:20:53;;;;;;;2.78;1.65;;;;;;;;;;4923488;29;20079;-73
2021/08/06 11:23:20;;;;;;;3.80;1.98;;;;;;;;;;4923458;29;20055;-73
2021/08/06 11:25:47;;;;;;;3.50;2.20;;;;;;;;;;4922562;29;20102;-73
2021/08/06 11:28:24;;;;;;;3.30;2.00;;;;;;;;;;4908139;29;20126;-72
2021/08/06 11:30:50;;;;;;;3.90;2.08;;;;;;;;;;4922092;29;20059;-73
2021/08/06 11:33:16;;;;;;;3.22;1.90;;;;;;;;;;4922135;29;20071;-72
2021/08/06 11:35:44;;;;;;;2.85;1.75;;;;;;;;;;4921448;29;20059;-73
2021/08/06 11:38:12;;;;;;;4.40;1.75;;;;;;;;;;4907935;29;20142;-72
2021/08/06 11:40:39;;;;;;;2.53;1.98;;;;;;;;;;4924111;29;20043;-73
2021/08/06 11:43:19;;;;;;;2.88;2.00;;;;;;;;;;4923304;29;21569;-72
2021/08/06 11:45:49;;;;;;;2.72;1.80;;;;;;;;;;4907479;29;20063;-72
2021/08/06 11:48:15;;;;;;;3.33;1.67;;;;;;;;;;4923216;29;20059;-72
2021/08/06 11:50:43;;;;;;;3.42;1.70;;;;;;;;;;4922513;29;20206;-72
2021/08/06 11:53:14;;;;;;;3.83;2.20;;;;;;;;;;4922394;29;20067;-73
2021/08/06 11:55:40;;;;;;;3.45;1.90;;;;;;;;;;4920784;29;20063;-74
2021/08/06 11:58:07;;;;;;;3.00;1.70;;;;;;;;;;4922921;29;20465;-73
2021/08/06 12:00:35;;;;;;;3.85;2.28;;;;;;;;;;4921903;29;20096;-74
2021/08/06 12:03:10;;;;;;;3.88;1.80;;;;;;;;;;4920581;29;20131;-73
2021/08/06 12:05:38;;;;;;;2.72;1.88;;;;;;;;;;4906435;29;20051;-73
2021/08/06 12:08:13;;;;;;;4.55;2.05;;;;;;;;;;4921284;29;20064;-73
2021/08/06 12:10:41;;;;;;;3.13;1.80;;;;;;;;;;4919039;29;20143;-72
2021/08/06 12:13:12;;;;;;;2.78;1.75;;;;;;;;;;4905376;29;20099;-72
2021/08/06 12:15:38;;;;;;;6.43;2.15;;;;;;;;;;4919661;29;20063;-73
2021/08/06 12:18:15;;;;;;;3.25;1.77;;;;;;;;;;4922633;29;20088;-73
2021/08/06 12:20:43;;;;;;;2.30;1.60;;;;;;;;;;4906168;29;20079;-73
2021/08/06 12:23:10;;;;;;;2.60;1.65;;;;;;;;;;4923659;29;20059;-72
2021/08/06 12:25:37;;;;;;;2.95;2.00;;;;;;;;;;4925282;29;20775;-72
2021/08/06 12:28:03;;;;;;;2.55;1.67;;;;;;;;;;4923674;29;20071;-71
2021/08/06 12:30:31;;;;;;;3.67;1.73;;;;;;;;;;4925730;29;20067;-72
2021/08/06 12:32:58;;;;;;;2.55;1.20;;;;;;;;;;4943479;28;20082;-72
2021/08/06 12:35:25;;;;;;;2.30;1.67;;;;;;;;;;4945640;28;20090;-72
2021/08/06 12:37:52;;;;;;;2.75;1.73;;;;;;;;;;4944329;28;20062;-72
2021/08/06 12:40:19;;;;;;;3.55;1.70;;;;;;;;;;4947144;29;20575;-73
2021/08/06 12:42:46;;;;;;;2.88;1.70;;;;;;;;;;4942131;28;20065;-72
2021/08/06 12:45:15;;;;;;;3.67;2.00;;;;;;;;;;4945062;28;20072;-72
2021/08/06 12:47:46;;;;;;;3.28;1.73;;;;;;;;;;4944181;29;20442;-73
2021/08/06 12:50:14;;;;;;;2.17;1.40;;;;;;;;;;4944541;29;20067;-73
2021/08/06 12:52:42;;;;;;;2.00;1.38;;;;;;;;;;4944516;29;20533;-72
2021/08/06 12:55:17;;;;;;;2.50;1.50;;;;;;;;;;4943907;28;20063;-73
2021/08/06 12:57:54;;;;;;;4.10;1.85;;;;;;;;;;4945236;28;20114;-72
2021/08/06 13:00:22;;;;;;;3.72;1.80;;;;;;;;;;4945951;28;20137;-73
2021/08/06 13:03:04;;;;;;;3.95;2.05;;;;;;;;;;4942456;28;20082;-72
2021/08/06 13:05:33;;;;;;;3.22;1.67;;;;;;;;;;4944636;28;20146;-72
2021/08/06 13:08:14;;;;;;;2.70;1.33;;;;;;;;;;4943272;28;20122;-72
2021/08/06 13:10:40;;;;;;;3.53;1.83;;;;;;;;;;4945414;28;20799;-73
2021/08/06 13:13:07;;;;;;;3.17;1.73;;;;;;;;;;4942563;28;20062;-72
2021/08/06 13:15:33;;;;;;;2.63;1.67;;;;;;;;;;4944149;28;20117;-73
2021/08/06 13:18:00;;;;;;;4.35;1.58;;;;;;;;;;4945948;28;20153;-72
2021/08/06 13:20:26;;;;;;;2.78;1.48;;;;;;;;;;4945588;28;20071;-72
2021/08/06 13:22:52;;;;;;;3.33;1.85;;;;;;;;;;4943541;28;20805;-73
2021/08/06 13:25:19;;;;;;;2.83;1.80;;;;;;;;;;4939029;28;20137;-74
2021/08/06 13:27:46;;;;;;;2.67;1.50;;;;;;;;;;4926236;29;20055;-75
2021/08/06 13:30:13;;;;;;;2.10;1.33;;;;;;;;;;4925600;28;20102;-78
2021/08/06 13:32:39;;;;;;;4.43;1.85;;;;;;;;;;4925137;29;20075;-75
2021/08/06 13:35:06;;;;;;;4.53;1.40;;;;;;;;;;4937644;28;20598;-79
2021/08/06 13:37:33;;;;;;;2.90;1.70;;;;;;;;;;4937359;29;20062;-76
2021/08/06 13:40:00;;;;;;;2.10;1.20;;;;;;;;;;4925390;29;20071;-77
2021/08/06 13:42:26;;;;;;;5.00;1.58;;;;;;;;;;4941269;28;20078;-76
2021/08/06 13:44:52;;;;;;;2.08;1.30;;;;;;;;;;4923996;29;20200;-76
2021/08/06 13:47:19;;;;;;;2.72;1.40;;;;;;;;;;4941061;28;20067;-75
2021/08/06 13:49:45;;;;;;;1.83;1.30;;;;;;;;;;4937972;28;20561;-76
2021/08/06 13:52:12;;;;;;;3.53;1.40;;;;;;;;;;4941891;28;20125;-75
2021/08/06 13:54:38;;;;;;;3.08;1.55;;;;;;;;;;4942265;29;20066;-77
2021/08/06 13:57:05;;;;;;;3.50;1.10;;;;;;;;;;4928830;29;20106;-75
2021/08/06 13:59:31;;;;;;;2.47;1.40;;;;;;;;;;4944833;28;20485;-76
2021/08/06 14:01:57;;;;;;;3.85;1.40;;;;;;;;;;4941901;28;20074;-75
2021/08/06 14:04:24;;;;;;;2.42;1.50;;;;;;;;;;4941493;28;20059;-76
2021/08/06 14:06:50;;;;;;;3.75;1.75;;;;;;;;;;4929677;28;20067;-75
2021/08/06 14:09:17;;;;;;;3.83;1.70;;;;;;;;;;4938931;29;20857;-76
2021/08/06 14:11:43;;;;;;;3.42;1.85;;;;;;;;;;4937790;28;20515;-76
2021/08/06 14:14:10;;;;;;;3.97;1.80;;;;;;;;;;4932376;29;20092;-75
2021/08/06 14:16:36;;;;;;;3.80;1.75;;;;;;;;;;4934027;28;20538;-75
2021/08/06 14:19:02;;;;;;;4.07;2.22;;;;;;;;;;4931569;29;20102;-75
2021/08/06 14:21:29;;;;;;;5.20;2.60;;;;;;;;;;4944374;28;20555;-73
2021/08/06 14:23:55;;;;;;;3.20;1.80;;;;;;;;;;4940356;29;20066;-73
2021/08/06 14:26:22;;;;;;;5.22;2.08;;;;;;;;;;4939894;28;20066;-74
2021/08/06 14:28:48;;;;;;;3.15;1.70;;;;;;;;;;4941121;28;20086;-75
2021/08/06 14:31:15;;;;;;;6.95;2.10;;;;;;;;;;4936814;28;20055;-75
2021/08/06 14:33:42;;;;;;;4.25;2.08;;;;;;;;;;4936540;28;20599;-75
2021/08/06 14:36:12;;;;;;;5.07;1.55;;;;;;;;;;4939880;28;20059;-75
2021/08/06 14:38:39;;;;;;;6.30;2.10;;;;;;;;;;4940130;29;20565;-76
2021/08/06 14:41:06;;;;;;;3.88;1.88;;;;;;;;;;4925109;29;20114;-77
2021/08/06 14:43:33;;;;;;;2.28;1.40;;;;;;;;;;4923850;28;20035;-77
2021/08/06 14:46:00;;;;;;;3.88;1.65;;;;;;;;;;4938540;28;21266;-76
2021/08/06 14:48:27;;;;;;;4.28;1.50;;;;;;;;;;4940588;28;20142;-76